sensor_id;sensor_type;location;lat;lon;timestamp;P1;durP1;ratioP1;P2;durP2;ratioP2
69989;SDS011;57331;52.054;5.294;2023-02-15T00:01:40;30.20;;;13.57;;
69989;SDS011;57331;52.054;5.294;2023-02-15T00:04:07;34.63;;;15.85;;
69989;SDS011;57331;52.054;5.294;2023-02-15T00:06:35;33.30;;;13.32;;
69989;SDS011;57331;52.054;5.294;2023-02-15T00:09:02;31.80;;;14.48;;
69989;SDS011;57331;52.054;5.294;2023-02-15T00:11:30;33.90;;;14.40;;
69989;SDS011;57331;52.054;5.294;2023-02-15T00:14:13;29.97;;;13.97;;
69989;SDS011;57331;52.054;5.294;2023-02-15T00:16:42;34.08;;;13.60;;
69989;SDS011;57331;52.054;5.294;2023-02-15T00:19:11;33.70;;;14.65;;
69989;SDS011;57331;52.054;5.294;2023-02-15T00:21:39;38.15;;;16.10;;
69989;SDS011;57331;52.054;5.294;2023-02-15T00:24:08;34.22;;;15.15;;
69989;SDS011;57331;52.054;5.294;2023-02-15T00:26:38;33.03;;;14.23;;
69989;SDS011;57331;52.054;5.294;2023-02-15T00:29:06;33.25;;;15.02;;
69989;SDS011;57331;52.054;5.294;2023-02-15T00:31:34;36.15;;;15.82;;
69989;SDS011;57331;52.054;5.294;2023-02-15T00:34:05;32.05;;;13.82;;
69989;SDS011;57331;52.054;5.294;2023-02-15T00:36:34;34.35;;;14.68;;
69989;SDS011;57331;52.054;5.294;2023-02-15T00:39:02;26.10;;;12.63;;
69989;SDS011;57331;52.054;5.294;2023-02-15T00:41:31;32.55;;;13.77;;
69989;SDS011;57331;52.054;5.294;2023-02-15T00:43:58;29.45;;;13.50;;
69989;SDS011;57331;52.054;5.294;2023-02-15T00:46:28;35.83;;;14.32;;
69989;SDS011;57331;52.054;5.294;2023-02-15T00:48:54;33.53;;;14.75;;
69989;SDS011;57331;52.054;5.294;2023-02-15T00:51:22;35.90;;;14.33;;
69989;SDS011;57331;52.054;5.294;2023-02-15T00:53:49;35.60;;;15.15;;
69989;SDS011;57331;52.054;5.294;2023-02-15T00:56:16;34.13;;;14.63;;
69989;SDS011;57331;52.054;5.294;2023-02-15T00:58:44;37.28;;;16.17;;
69989;SDS011;57331;52.054;5.294;2023-02-15T01:01:14;34.80;;;15.88;;
69989;SDS011;57331;52.054;5.294;2023-02-15T01:03:43;33.57;;;15.23;;
69989;SDS011;57331;52.054;5.294;2023-02-15T01:06:12;38.42;;;15.63;;
69989;SDS011;57331;52.054;5.294;2023-02-15T01:08:43;35.67;;;15.02;;
69989;SDS011;57331;52.054;5.294;2023-02-15T01:11:11;36.22;;;14.98;;
69989;SDS011;57331;52.054;5.294;2023-02-15T01:13:40;38.55;;;14.70;;
69989;SDS011;57331;52.054;5.294;2023-02-15T01:16:07;30.27;;;14.27;;
69989;SDS011;57331;52.054;5.294;2023-02-15T01:18:35;38.33;;;16.13;;
69989;SDS011;57331;52.054;5.294;2023-02-15T01:21:12;32.28;;;14.13;;
69989;SDS011;57331;52.054;5.294;2023-02-15T01:23:42;34.15;;;14.38;;
69989;SDS011;57331;52.054;5.294;2023-02-15T01:26:11;38.38;;;14.80;;
69989;SDS011;57331;52.054;5.294;2023-02-15T01:28:39;34.23;;;13.97;;
69989;SDS011;57331;52.054;5.294;2023-02-15T01:31:10;35.33;;;14.57;;
69989;SDS011;57331;52.054;5.294;2023-02-15T01:33:39;35.70;;;14.50;;
69989;SDS011;57331;52.054;5.294;2023-02-15T01:36:08;33.25;;;14.68;;
69989;SDS011;57331;52.054;5.294;2023-02-15T01:38:37;35.20;;;14.38;;
69989;SDS011;57331;52.054;5.294;2023-02-15T01:41:06;43.07;;;15.33;;
69989;SDS011;57331;52.054;5.294;2023-02-15T01:43:57;33.63;;;14.00;;
69989;SDS011;57331;52.054;5.294;2023-02-15T01:46:27;32.92;;;13.93;;
69989;SDS011;57331;52.054;5.294;2023-02-15T01:49:16;33.47;;;14.23;;
69989;SDS011;57331;52.054;5.294;2023-02-15T01:51:46;30.50;;;13.35;;
69989;SDS011;57331;52.054;5.294;2023-02-15T01:56:58;32.63;;;14.68;;
69989;SDS011;57331;52.054;5.294;2023-02-15T01:59:29;32.03;;;13.18;;
69989;SDS011;57331;52.054;5.294;2023-02-15T02:01:59;31.98;;;14.65;;
69989;SDS011;57331;52.054;5.294;2023-02-15T02:04:31;36.38;;;13.82;;
69989;SDS011;57331;52.054;5.294;2023-02-15T02:07:04;34.33;;;14.17;;
69989;SDS011;57331;52.054;5.294;2023-02-15T02:09:32;33.03;;;13.73;;
69989;SDS011;57331;52.054;5.294;2023-02-15T02:12:00;32.40;;;12.88;;
69989;SDS011;57331;52.054;5.294;2023-02-15T02:14:27;30.88;;;14.15;;
69989;SDS011;57331;52.054;5.294;2023-02-15T02:17:11;34.78;;;13.32;;
69989;SDS011;57331;52.054;5.294;2023-02-15T02:36:58;34.28;;;13.85;;
69989;SDS011;57331;52.054;5.294;2023-02-15T02:39:37;36.03;;;14.55;;
69989;SDS011;57331;52.054;5.294;2023-02-15T02:42:25;32.97;;;14.90;;
69989;SDS011;57331;52.054;5.294;2023-02-15T02:47:46;35.37;;;14.87;;
69989;SDS011;57331;52.054;5.294;2023-02-15T02:50:20;41.65;;;14.82;;
69989;SDS011;57331;52.054;5.294;2023-02-15T02:52:50;33.22;;;13.98;;
69989;SDS011;57331;52.054;5.294;2023-02-15T02:55:21;32.70;;;13.63;;
69989;SDS011;57331;52.054;5.294;2023-02-15T03:00:25;30.80;;;13.77;;
69989;SDS011;57331;52.054;5.294;2023-02-15T03:03:00;37.78;;;14.40;;
69989;SDS011;57331;52.054;5.294;2023-02-15T03:05:33;31.67;;;12.82;;
69989;SDS011;57331;52.054;5.294;2023-02-15T03:08:04;34.47;;;14.15;;
69989;SDS011;57331;52.054;5.294;2023-02-15T03:10:32;30.55;;;11.57;;
69989;SDS011;57331;52.054;5.294;2023-02-15T03:13:03;35.17;;;13.97;;
69989;SDS011;57331;52.054;5.294;2023-02-15T03:15:31;32.90;;;14.38;;
69989;SDS011;57331;52.054;5.294;2023-02-15T03:18:22;36.47;;;14.18;;
69989;SDS011;57331;52.054;5.294;2023-02-15T03:20:54;36.55;;;14.95;;
69989;SDS011;57331;52.054;5.294;2023-02-15T03:23:23;35.17;;;14.38;;
69989;SDS011;57331;52.054;5.294;2023-02-15T03:25:52;36.43;;;15.30;;
69989;SDS011;57331;52.054;5.294;2023-02-15T03:28:35;32.47;;;14.57;;
69989;SDS011;57331;52.054;5.294;2023-02-15T03:31:07;37.38;;;15.65;;
69989;SDS011;57331;52.054;5.294;2023-02-15T03:33:40;35.05;;;14.55;;
69989;SDS011;57331;52.054;5.294;2023-02-15T03:38:53;41.70;;;15.10;;
69989;SDS011;57331;52.054;5.294;2023-02-15T03:41:31;39.75;;;15.95;;
69989;SDS011;57331;52.054;5.294;2023-02-15T03:47:13;32.30;;;12.65;;
69989;SDS011;57331;52.054;5.294;2023-02-15T03:49:48;27.98;;;11.90;;
69989;SDS011;57331;52.054;5.294;2023-02-15T03:52:55;40.60;;;16.43;;
69989;SDS011;57331;52.054;5.294;2023-02-15T03:55:24;34.88;;;16.85;;
69989;SDS011;57331;52.054;5.294;2023-02-15T03:57:52;35.40;;;13.25;;
69989;SDS011;57331;52.054;5.294;2023-02-15T04:00:39;34.38;;;12.98;;
69989;SDS011;57331;52.054;5.294;2023-02-15T04:05:57;39.90;;;16.10;;
69989;SDS011;57331;52.054;5.294;2023-02-15T04:08:25;40.25;;;13.27;;
69989;SDS011;57331;52.054;5.294;2023-02-15T04:11:12;34.95;;;14.32;;
69989;SDS011;57331;52.054;5.294;2023-02-15T04:13:40;33.35;;;14.38;;
69989;SDS011;57331;52.054;5.294;2023-02-15T04:16:07;36.10;;;15.18;;
69989;SDS011;57331;52.054;5.294;2023-02-15T04:18:38;36.40;;;15.90;;
69989;SDS011;57331;52.054;5.294;2023-02-15T04:21:26;36.90;;;12.88;;
69989;SDS011;57331;52.054;5.294;2023-02-15T04:24:14;39.28;;;16.60;;
69989;SDS011;57331;52.054;5.294;2023-02-15T04:27:00;38.08;;;15.73;;
69989;SDS011;57331;52.054;5.294;2023-02-15T04:29:28;35.80;;;13.75;;
69989;SDS011;57331;52.054;5.294;2023-02-15T04:31:57;39.90;;;15.57;;
69989;SDS011;57331;52.054;5.294;2023-02-15T04:34:25;34.83;;;13.00;;
69989;SDS011;57331;52.054;5.294;2023-02-15T04:36:53;31.50;;;13.48;;
69989;SDS011;57331;52.054;5.294;2023-02-15T04:39:20;39.55;;;15.90;;
69989;SDS011;57331;52.054;5.294;2023-02-15T04:41:47;30.77;;;13.20;;
69989;SDS011;57331;52.054;5.294;2023-02-15T04:44:15;40.63;;;14.83;;
69989;SDS011;57331;52.054;5.294;2023-02-15T04:46:42;42.42;;;17.33;;
69989;SDS011;57331;52.054;5.294;2023-02-15T04:49:09;32.58;;;13.55;;
69989;SDS011;57331;52.054;5.294;2023-02-15T04:51:37;32.88;;;14.60;;
69989;SDS011;57331;52.054;5.294;2023-02-15T04:54:04;40.75;;;16.80;;
69989;SDS011;57331;52.054;5.294;2023-02-15T04:56:31;43.73;;;15.63;;
69989;SDS011;57331;52.054;5.294;2023-02-15T04:59:01;30.90;;;13.98;;
69989;SDS011;57331;52.054;5.294;2023-02-15T05:01:28;36.45;;;14.90;;
69989;SDS011;57331;52.054;5.294;2023-02-15T05:03:55;39.10;;;15.75;;
69989;SDS011;57331;52.054;5.294;2023-02-15T05:06:22;37.92;;;16.33;;
69989;SDS011;57331;52.054;5.294;2023-02-15T05:08:50;33.43;;;15.70;;
69989;SDS011;57331;52.054;5.294;2023-02-15T05:11:17;46.05;;;15.38;;
69989;SDS011;57331;52.054;5.294;2023-02-15T05:13:45;38.88;;;16.08;;
69989;SDS011;57331;52.054;5.294;2023-02-15T05:16:12;34.72;;;15.63;;
69989;SDS011;57331;52.054;5.294;2023-02-15T05:18:39;39.63;;;14.93;;
69989;SDS011;57331;52.054;5.294;2023-02-15T05:21:06;43.53;;;16.63;;
69989;SDS011;57331;52.054;5.294;2023-02-15T05:23:34;38.05;;;15.05;;
69989;SDS011;57331;52.054;5.294;2023-02-15T05:26:02;41.78;;;17.85;;
69989;SDS011;57331;52.054;5.294;2023-02-15T05:28:48;38.75;;;16.08;;
69989;SDS011;57331;52.054;5.294;2023-02-15T05:31:16;43.58;;;16.60;;
69989;SDS011;57331;52.054;5.294;2023-02-15T05:33:45;40.07;;;16.47;;
69989;SDS011;57331;52.054;5.294;2023-02-15T05:36:12;33.63;;;13.73;;
69989;SDS011;57331;52.054;5.294;2023-02-15T05:38:40;36.22;;;16.63;;
69989;SDS011;57331;52.054;5.294;2023-02-15T05:41:08;40.65;;;15.13;;
69989;SDS011;57331;52.054;5.294;2023-02-15T05:43:36;36.17;;;14.30;;
69989;SDS011;57331;52.054;5.294;2023-02-15T05:46:04;44.60;;;16.03;;
69989;SDS011;57331;52.054;5.294;2023-02-15T05:48:31;40.13;;;16.75;;
69989;SDS011;57331;52.054;5.294;2023-02-15T05:50:59;40.85;;;16.17;;
69989;SDS011;57331;52.054;5.294;2023-02-15T05:53:29;39.20;;;16.00;;
69989;SDS011;57331;52.054;5.294;2023-02-15T05:55:57;43.45;;;15.98;;
69989;SDS011;57331;52.054;5.294;2023-02-15T05:58:27;39.47;;;15.07;;
69989;SDS011;57331;52.054;5.294;2023-02-15T06:00:55;40.97;;;15.82;;
69989;SDS011;57331;52.054;5.294;2023-02-15T06:03:23;32.75;;;15.73;;
69989;SDS011;57331;52.054;5.294;2023-02-15T06:05:52;36.95;;;15.57;;
69989;SDS011;57331;52.054;5.294;2023-02-15T06:08:19;44.05;;;16.80;;
69989;SDS011;57331;52.054;5.294;2023-02-15T06:10:47;48.33;;;14.90;;
69989;SDS011;57331;52.054;5.294;2023-02-15T06:13:14;42.15;;;15.63;;
69989;SDS011;57331;52.054;5.294;2023-02-15T06:15:42;42.45;;;16.70;;
69989;SDS011;57331;52.054;5.294;2023-02-15T06:18:09;33.63;;;15.73;;
69989;SDS011;57331;52.054;5.294;2023-02-15T06:20:36;35.67;;;15.63;;
69989;SDS011;57331;52.054;5.294;2023-02-15T06:23:03;41.17;;;15.83;;
69989;SDS011;57331;52.054;5.294;2023-02-15T06:25:31;45.75;;;15.18;;
69989;SDS011;57331;52.054;5.294;2023-02-15T06:28:01;48.35;;;18.70;;
69989;SDS011;57331;52.054;5.294;2023-02-15T06:30:29;40.10;;;16.52;;
69989;SDS011;57331;52.054;5.294;2023-02-15T06:32:56;35.58;;;14.45;;
69989;SDS011;57331;52.054;5.294;2023-02-15T06:35:23;44.47;;;16.97;;
69989;SDS011;57331;52.054;5.294;2023-02-15T06:37:50;49.83;;;18.55;;
69989;SDS011;57331;52.054;5.294;2023-02-15T06:40:18;43.00;;;15.85;;
69989;SDS011;57331;52.054;5.294;2023-02-15T06:42:45;45.33;;;17.08;;
69989;SDS011;57331;52.054;5.294;2023-02-15T06:45:12;41.97;;;16.65;;
69989;SDS011;57331;52.054;5.294;2023-02-15T06:47:40;30.70;;;12.67;;
69989;SDS011;57331;52.054;5.294;2023-02-15T06:50:07;36.05;;;15.73;;
69989;SDS011;57331;52.054;5.294;2023-02-15T06:52:35;35.53;;;13.98;;
69989;SDS011;57331;52.054;5.294;2023-02-15T06:55:02;47.05;;;19.42;;
69989;SDS011;57331;52.054;5.294;2023-02-15T06:57:30;40.72;;;16.38;;
69989;SDS011;57331;52.054;5.294;2023-02-15T06:59:58;38.67;;;16.17;;
69989;SDS011;57331;52.054;5.294;2023-02-15T07:02:26;32.65;;;13.70;;
69989;SDS011;57331;52.054;5.294;2023-02-15T07:04:53;40.40;;;17.38;;
69989;SDS011;57331;52.054;5.294;2023-02-15T07:07:21;45.35;;;17.83;;
69989;SDS011;57331;52.054;5.294;2023-02-15T07:09:48;44.40;;;17.33;;
69989;SDS011;57331;52.054;5.294;2023-02-15T07:12:15;38.83;;;16.40;;
69989;SDS011;57331;52.054;5.294;2023-02-15T07:15:01;32.50;;;13.25;;
69989;SDS011;57331;52.054;5.294;2023-02-15T07:17:32;42.67;;;16.60;;
69989;SDS011;57331;52.054;5.294;2023-02-15T07:20:06;42.42;;;15.85;;
69989;SDS011;57331;52.054;5.294;2023-02-15T07:22:34;44.90;;;17.63;;
69989;SDS011;57331;52.054;5.294;2023-02-15T07:25:03;35.03;;;15.73;;
69989;SDS011;57331;52.054;5.294;2023-02-15T07:27:31;45.78;;;17.98;;
69989;SDS011;57331;52.054;5.294;2023-02-15T07:29:58;44.65;;;17.23;;
69989;SDS011;57331;52.054;5.294;2023-02-15T07:32:29;38.70;;;16.58;;
69989;SDS011;57331;52.054;5.294;2023-02-15T07:34:57;52.97;;;20.17;;
69989;SDS011;57331;52.054;5.294;2023-02-15T07:37:24;42.87;;;17.80;;
69989;SDS011;57331;52.054;5.294;2023-02-15T07:39:52;39.05;;;17.45;;
69989;SDS011;57331;52.054;5.294;2023-02-15T07:42:19;46.63;;;18.58;;
69989;SDS011;57331;52.054;5.294;2023-02-15T07:44:48;36.92;;;15.40;;
69989;SDS011;57331;52.054;5.294;2023-02-15T07:47:16;36.58;;;14.82;;
69989;SDS011;57331;52.054;5.294;2023-02-15T07:49:44;44.60;;;17.93;;
69989;SDS011;57331;52.054;5.294;2023-02-15T07:52:11;46.08;;;18.15;;
69989;SDS011;57331;52.054;5.294;2023-02-15T07:54:38;42.67;;;17.08;;
69989;SDS011;57331;52.054;5.294;2023-02-15T07:57:05;47.28;;;16.65;;
69989;SDS011;57331;52.054;5.294;2023-02-15T07:59:33;34.42;;;14.32;;
69989;SDS011;57331;52.054;5.294;2023-02-15T08:02:00;40.80;;;17.40;;
69989;SDS011;57331;52.054;5.294;2023-02-15T08:04:27;46.10;;;17.60;;
69989;SDS011;57331;52.054;5.294;2023-02-15T08:06:54;32.20;;;13.63;;
69989;SDS011;57331;52.054;5.294;2023-02-15T08:09:22;33.10;;;14.95;;
69989;SDS011;57331;52.054;5.294;2023-02-15T08:11:49;30.98;;;14.82;;
69989;SDS011;57331;52.054;5.294;2023-02-15T08:14:20;42.30;;;16.73;;
69989;SDS011;57331;52.054;5.294;2023-02-15T08:16:51;42.88;;;16.63;;
69989;SDS011;57331;52.054;5.294;2023-02-15T08:19:22;40.67;;;17.60;;
69989;SDS011;57331;52.054;5.294;2023-02-15T08:21:52;38.75;;;15.15;;
69989;SDS011;57331;52.054;5.294;2023-02-15T08:24:24;39.65;;;16.98;;
69989;SDS011;57331;52.054;5.294;2023-02-15T08:26:53;20.03;;;9.03;;
69989;SDS011;57331;52.054;5.294;2023-02-15T08:29:22;37.13;;;17.05;;
69989;SDS011;57331;52.054;5.294;2023-02-15T08:31:52;32.88;;;13.73;;
69989;SDS011;57331;52.054;5.294;2023-02-15T08:34:20;43.67;;;17.42;;
69989;SDS011;57331;52.054;5.294;2023-02-15T08:36:47;34.63;;;15.05;;
69989;SDS011;57331;52.054;5.294;2023-02-15T08:39:15;29.33;;;11.57;;
69989;SDS011;57331;52.054;5.294;2023-02-15T08:41:43;40.65;;;17.77;;
69989;SDS011;57331;52.054;5.294;2023-02-15T08:44:12;38.40;;;17.15;;
69989;SDS011;57331;52.054;5.294;2023-02-15T08:46:42;45.15;;;18.92;;
69989;SDS011;57331;52.054;5.294;2023-02-15T08:49:12;33.50;;;15.70;;
69989;SDS011;57331;52.054;5.294;2023-02-15T08:51:44;38.03;;;17.43;;
69989;SDS011;57331;52.054;5.294;2023-02-15T08:54:12;41.38;;;14.68;;
69989;SDS011;57331;52.054;5.294;2023-02-15T08:56:41;38.35;;;17.92;;
69989;SDS011;57331;52.054;5.294;2023-02-15T08:59:17;38.65;;;17.30;;
69989;SDS011;57331;52.054;5.294;2023-02-15T09:01:46;46.58;;;20.67;;
69989;SDS011;57331;52.054;5.294;2023-02-15T09:04:15;38.43;;;17.07;;
69989;SDS011;57331;52.054;5.294;2023-02-15T09:06:44;42.40;;;18.42;;
69989;SDS011;57331;52.054;5.294;2023-02-15T09:09:14;39.28;;;18.13;;
69989;SDS011;57331;52.054;5.294;2023-02-15T09:11:43;39.90;;;19.15;;
69989;SDS011;57331;52.054;5.294;2023-02-15T09:14:12;42.53;;;19.05;;
69989;SDS011;57331;52.054;5.294;2023-02-15T09:16:41;42.93;;;19.10;;
69989;SDS011;57331;52.054;5.294;2023-02-15T09:19:12;45.67;;;19.65;;
69989;SDS011;57331;52.054;5.294;2023-02-15T09:21:39;43.40;;;17.92;;
69989;SDS011;57331;52.054;5.294;2023-02-15T09:24:08;44.80;;;19.92;;
69989;SDS011;57331;52.054;5.294;2023-02-15T09:26:41;41.63;;;18.13;;
69989;SDS011;57331;52.054;5.294;2023-02-15T09:29:10;41.67;;;18.43;;
69989;SDS011;57331;52.054;5.294;2023-02-15T09:31:47;36.38;;;16.15;;
69989;SDS011;57331;52.054;5.294;2023-02-15T09:34:18;38.30;;;16.55;;
69989;SDS011;57331;52.054;5.294;2023-02-15T09:36:46;45.75;;;19.40;;
69989;SDS011;57331;52.054;5.294;2023-02-15T09:39:18;40.67;;;17.95;;
69989;SDS011;57331;52.054;5.294;2023-02-15T09:44:35;41.30;;;18.83;;
69989;SDS011;57331;52.054;5.294;2023-02-15T09:52:45;45.13;;;20.13;;
69989;SDS011;57331;52.054;5.294;2023-02-15T09:55:24;32.40;;;14.10;;
69989;SDS011;57331;52.054;5.294;2023-02-15T10:05:48;35.97;;;15.30;;
69989;SDS011;57331;52.054;5.294;2023-02-15T10:11:28;39.33;;;18.67;;
69989;SDS011;57331;52.054;5.294;2023-02-15T10:22:18;46.57;;;21.57;;
69989;SDS011;57331;52.054;5.294;2023-02-15T10:27:47;41.67;;;19.13;;
69989;SDS011;57331;52.054;5.294;2023-02-15T10:30:15;47.55;;;20.83;;
69989;SDS011;57331;52.054;5.294;2023-02-15T10:35:43;45.30;;;19.90;;
69989;SDS011;57331;52.054;5.294;2023-02-15T10:43:56;43.17;;;18.58;;
69989;SDS011;57331;52.054;5.294;2023-02-15T10:46:32;45.65;;;20.33;;
69989;SDS011;57331;52.054;5.294;2023-02-15T10:49:23;41.17;;;19.97;;
69989;SDS011;57331;52.054;5.294;2023-02-15T10:57:19;35.90;;;18.42;;
69989;SDS011;57331;52.054;5.294;2023-02-15T11:00:05;43.03;;;20.13;;
69989;SDS011;57331;52.054;5.294;2023-02-15T11:02:42;42.23;;;19.90;;
69989;SDS011;57331;52.054;5.294;2023-02-15T11:05:26;43.42;;;20.45;;
69989;SDS011;57331;52.054;5.294;2023-02-15T11:07:56;44.67;;;20.95;;
69989;SDS011;57331;52.054;5.294;2023-02-15T11:10:28;36.97;;;17.70;;
69989;SDS011;57331;52.054;5.294;2023-02-15T11:13:12;40.83;;;20.58;;
69989;SDS011;57331;52.054;5.294;2023-02-15T11:15:55;47.80;;;22.13;;
69989;SDS011;57331;52.054;5.294;2023-02-15T11:20:59;44.45;;;21.80;;
69989;SDS011;57331;52.054;5.294;2023-02-15T11:23:28;41.15;;;20.42;;
69989;SDS011;57331;52.054;5.294;2023-02-15T11:28:29;49.57;;;21.40;;
69989;SDS011;57331;52.054;5.294;2023-02-15T11:30:58;50.65;;;21.67;;
69989;SDS011;57331;52.054;5.294;2023-02-15T11:33:35;48.33;;;22.33;;
69989;SDS011;57331;52.054;5.294;2023-02-15T11:36:29;33.08;;;16.30;;
69989;SDS011;57331;52.054;5.294;2023-02-15T11:38:59;46.15;;;20.88;;
69989;SDS011;57331;52.054;5.294;2023-02-15T11:41:34;46.90;;;21.30;;
69989;SDS011;57331;52.054;5.294;2023-02-15T11:46:59;48.53;;;22.60;;
69989;SDS011;57331;52.054;5.294;2023-02-15T11:49:32;43.33;;;22.60;;
69989;SDS011;57331;52.054;5.294;2023-02-15T11:52:05;44.33;;;20.10;;
69989;SDS011;57331;52.054;5.294;2023-02-15T11:54:35;32.57;;;16.87;;
69989;SDS011;57331;52.054;5.294;2023-02-15T11:59:59;39.00;;;17.98;;
69989;SDS011;57331;52.054;5.294;2023-02-15T12:02:33;32.80;;;16.85;;
69989;SDS011;57331;52.054;5.294;2023-02-15T12:05:09;38.92;;;19.60;;
69989;SDS011;57331;52.054;5.294;2023-02-15T12:10:38;41.95;;;20.73;;
69989;SDS011;57331;52.054;5.294;2023-02-15T12:13:12;41.10;;;21.25;;
69989;SDS011;57331;52.054;5.294;2023-02-15T12:15:44;38.70;;;17.73;;
69989;SDS011;57331;52.054;5.294;2023-02-15T12:18:24;44.90;;;22.42;;
69989;SDS011;57331;52.054;5.294;2023-02-15T12:21:23;47.43;;;22.50;;
69989;SDS011;57331;52.054;5.294;2023-02-15T12:23:54;47.85;;;22.05;;
69989;SDS011;57331;52.054;5.294;2023-02-15T12:26:25;45.38;;;21.85;;
69989;SDS011;57331;52.054;5.294;2023-02-15T12:29:01;41.47;;;19.73;;
69989;SDS011;57331;52.054;5.294;2023-02-15T12:31:39;39.22;;;21.63;;
69989;SDS011;57331;52.054;5.294;2023-02-15T12:34:13;39.60;;;21.60;;
69989;SDS011;57331;52.054;5.294;2023-02-15T12:36:49;37.08;;;19.40;;
69989;SDS011;57331;52.054;5.294;2023-02-15T12:39:25;36.40;;;20.42;;
69989;SDS011;57331;52.054;5.294;2023-02-15T12:50:05;46.10;;;22.92;;
69989;SDS011;57331;52.054;5.294;2023-02-15T12:52:46;42.47;;;22.88;;
69989;SDS011;57331;52.054;5.294;2023-02-15T12:55:19;42.25;;;22.67;;
69989;SDS011;57331;52.054;5.294;2023-02-15T13:00:45;36.67;;;20.48;;
69989;SDS011;57331;52.054;5.294;2023-02-15T13:03:19;45.55;;;22.42;;
69989;SDS011;57331;52.054;5.294;2023-02-15T13:05:50;45.20;;;22.63;;
69989;SDS011;57331;52.054;5.294;2023-02-15T13:08:30;47.13;;;22.48;;
69989;SDS011;57331;52.054;5.294;2023-02-15T13:11:00;42.75;;;23.23;;
69989;SDS011;57331;52.054;5.294;2023-02-15T13:13:33;46.58;;;23.60;;
69989;SDS011;57331;52.054;5.294;2023-02-15T13:16:04;38.17;;;19.50;;
69989;SDS011;57331;52.054;5.294;2023-02-15T13:18:42;44.83;;;23.60;;
69989;SDS011;57331;52.054;5.294;2023-02-15T13:21:13;44.03;;;23.27;;
69989;SDS011;57331;52.054;5.294;2023-02-15T13:23:52;48.38;;;22.90;;
69989;SDS011;57331;52.054;5.294;2023-02-15T13:26:26;43.85;;;23.52;;
69989;SDS011;57331;52.054;5.294;2023-02-15T13:28:58;47.28;;;23.70;;
69989;SDS011;57331;52.054;5.294;2023-02-15T13:31:34;49.95;;;23.20;;
69989;SDS011;57331;52.054;5.294;2023-02-15T13:34:12;46.17;;;24.45;;
69989;SDS011;57331;52.054;5.294;2023-02-15T13:36:54;43.50;;;23.33;;
69989;SDS011;57331;52.054;5.294;2023-02-15T13:39:34;46.30;;;24.15;;
69989;SDS011;57331;52.054;5.294;2023-02-15T13:42:30;48.88;;;22.63;;
69989;SDS011;57331;52.054;5.294;2023-02-15T13:53:57;46.87;;;23.90;;
69989;SDS011;57331;52.054;5.294;2023-02-15T14:10:10;48.55;;;23.65;;
69989;SDS011;57331;52.054;5.294;2023-02-15T14:15:34;46.00;;;21.27;;
69989;SDS011;57331;52.054;5.294;2023-02-15T14:18:22;47.65;;;22.73;;
69989;SDS011;57331;52.054;5.294;2023-02-15T14:23:41;47.08;;;23.02;;
69989;SDS011;57331;52.054;5.294;2023-02-15T14:29:16;56.30;;;23.73;;
69989;SDS011;57331;52.054;5.294;2023-02-15T14:32:12;46.30;;;22.55;;
69989;SDS011;57331;52.054;5.294;2023-02-15T14:37:12;51.78;;;21.98;;
69989;SDS011;57331;52.054;5.294;2023-02-15T14:43:09;45.72;;;22.55;;
69989;SDS011;57331;52.054;5.294;2023-02-15T14:45:56;48.22;;;22.83;;
69989;SDS011;57331;52.054;5.294;2023-02-15T14:48:55;51.13;;;24.00;;
69989;SDS011;57331;52.054;5.294;2023-02-15T14:54:10;49.13;;;23.67;;
69989;SDS011;57331;52.054;5.294;2023-02-15T15:02:03;48.40;;;23.07;;
69989;SDS011;57331;52.054;5.294;2023-02-15T15:04:41;58.17;;;25.90;;
69989;SDS011;57331;52.054;5.294;2023-02-15T15:07:19;52.33;;;24.73;;
69989;SDS011;57331;52.054;5.294;2023-02-15T15:09:58;50.78;;;24.02;;
69989;SDS011;57331;52.054;5.294;2023-02-15T15:15:52;49.47;;;23.10;;
69989;SDS011;57331;52.054;5.294;2023-02-15T15:18:05;51.70;;;22.83;;
69989;SDS011;57331;52.054;5.294;2023-02-15T15:25:48;48.67;;;23.42;;
69989;SDS011;57331;52.054;5.294;2023-02-15T15:28:52;51.87;;;23.77;;
69989;SDS011;57331;52.054;5.294;2023-02-15T15:31:25;47.42;;;22.20;;
69989;SDS011;57331;52.054;5.294;2023-02-15T15:39:34;50.75;;;23.88;;
69989;SDS011;57331;52.054;5.294;2023-02-15T15:49:40;53.72;;;23.88;;
69989;SDS011;57331;52.054;5.294;2023-02-15T15:52:14;48.78;;;24.02;;
69989;SDS011;57331;52.054;5.294;2023-02-15T15:54:44;49.60;;;23.97;;
69989;SDS011;57331;52.054;5.294;2023-02-15T15:57:37;55.90;;;23.77;;
69989;SDS011;57331;52.054;5.294;2023-02-15T16:00:05;52.22;;;22.55;;
69989;SDS011;57331;52.054;5.294;2023-02-15T16:02:55;48.38;;;23.13;;
69989;SDS011;57331;52.054;5.294;2023-02-15T16:05:22;48.90;;;22.83;;
69989;SDS011;57331;52.054;5.294;2023-02-15T16:07:50;54.27;;;24.23;;
69989;SDS011;57331;52.054;5.294;2023-02-15T16:12:51;50.85;;;23.50;;
69989;SDS011;57331;52.054;5.294;2023-02-15T16:15:43;52.33;;;25.17;;
69989;SDS011;57331;52.054;5.294;2023-02-15T16:18:15;48.00;;;21.83;;
69989;SDS011;57331;52.054;5.294;2023-02-15T16:20:54;54.30;;;25.23;;
69989;SDS011;57331;52.054;5.294;2023-02-15T16:26:06;54.70;;;24.55;;
69989;SDS011;57331;52.054;5.294;2023-02-15T16:28:55;53.60;;;24.77;;
69989;SDS011;57331;52.054;5.294;2023-02-15T16:31:22;54.03;;;25.23;;
69989;SDS011;57331;52.054;5.294;2023-02-15T16:33:53;54.77;;;25.20;;
69989;SDS011;57331;52.054;5.294;2023-02-15T16:36:22;53.78;;;24.05;;
69989;SDS011;57331;52.054;5.294;2023-02-15T16:41:22;52.88;;;25.38;;
69989;SDS011;57331;52.054;5.294;2023-02-15T16:43:52;60.38;;;27.25;;
69989;SDS011;57331;52.054;5.294;2023-02-15T16:48:48;55.85;;;25.67;;
69989;SDS011;57331;52.054;5.294;2023-02-15T16:51:18;55.30;;;26.63;;
69989;SDS011;57331;52.054;5.294;2023-02-15T16:53:49;59.75;;;27.13;;
69989;SDS011;57331;52.054;5.294;2023-02-15T16:56:16;61.90;;;26.95;;
69989;SDS011;57331;52.054;5.294;2023-02-15T16:58:54;59.47;;;26.90;;
69989;SDS011;57331;52.054;5.294;2023-02-15T17:01:24;64.65;;;28.52;;
69989;SDS011;57331;52.054;5.294;2023-02-15T17:04:12;57.58;;;27.38;;
69989;SDS011;57331;52.054;5.294;2023-02-15T17:09:33;62.53;;;28.13;;
69989;SDS011;57331;52.054;5.294;2023-02-15T17:12:00;65.33;;;28.37;;
69989;SDS011;57331;52.054;5.294;2023-02-15T17:14:29;58.25;;;26.77;;
69989;SDS011;57331;52.054;5.294;2023-02-15T17:17:12;66.90;;;29.55;;
69989;SDS011;57331;52.054;5.294;2023-02-15T17:19:48;59.13;;;28.63;;
69989;SDS011;57331;52.054;5.294;2023-02-15T17:22:24;67.70;;;29.55;;
69989;SDS011;57331;52.054;5.294;2023-02-15T17:25:00;59.73;;;27.43;;
69989;SDS011;57331;52.054;5.294;2023-02-15T17:27:30;58.15;;;28.58;;
69989;SDS011;57331;52.054;5.294;2023-02-15T17:30:03;60.50;;;27.60;;
69989;SDS011;57331;52.054;5.294;2023-02-15T17:32:57;59.33;;;26.95;;
69989;SDS011;57331;52.054;5.294;2023-02-15T17:35:27;58.90;;;26.27;;
69989;SDS011;57331;52.054;5.294;2023-02-15T17:40:41;57.70;;;25.95;;
69989;SDS011;57331;52.054;5.294;2023-02-15T17:43:08;59.40;;;27.52;;
69989;SDS011;57331;52.054;5.294;2023-02-15T17:45:38;61.03;;;26.60;;
69989;SDS011;57331;52.054;5.294;2023-02-15T17:48:09;60.20;;;26.33;;
69989;SDS011;57331;52.054;5.294;2023-02-15T17:50:49;60.37;;;26.00;;
69989;SDS011;57331;52.054;5.294;2023-02-15T17:53:16;53.42;;;25.42;;
69989;SDS011;57331;52.054;5.294;2023-02-15T17:55:44;58.58;;;27.15;;